Time;durP1;ratioP1;P1;durP2;ratioP2;P2;SDS_P1;SDS_P2;PMS_P1;PMS_P2;Temp;Humidity;BMP_temperature;BMP_pressure;BME280_temperature;BME280_humidity;BME280_pressure;Samples;Min_cycle;Max_cycle;Signal;HPM_P1;HPM_P2
2022/01/14 00:01:58;;;;;;;87.38;20.67;;;4.90;91.70;;;;;;4993780;28;20034;-89
2022/01/14 00:04:24;;;;;;;48.15;18.88;;;5.00;91.70;;;;;;4961827;28;20078;-89
2022/01/14 00:06:50;;;;;;;56.30;20.50;;;5.00;91.80;;;;;;4994520;28;20725;-89
2022/01/14 00:09:17;;;;;;;165.63;26.73;;;5.00;91.70;;;;;;4994541;28;20064;-89
2022/01/14 00:11:48;;;;;;;40.35;18.55;;;5.00;91.70;;;;;;4997961;28;20117;-89
2022/01/14 00:16:41;;;;;;;62.10;19.73;;;5.00;91.70;;;;;;4982235;28;20053;-90
2022/01/14 00:19:07;;;;;;;86.35;22.52;;;4.90;91.70;;;;;;4998145;28;20033;-90
2022/01/14 00:21:35;;;;;;;102.85;22.08;;;4.90;91.80;;;;;;4998572;28;20468;-89
2022/01/14 00:24:10;;;;;;;59.67;20.05;;;5.00;91.80;;;;;;4998030;28;20473;-90
2022/01/14 00:32:19;;;;;;;41.47;18.58;;;5.00;91.70;;;;;;5015563;28;20038;-90
2022/01/14 00:34:45;;;;;;;56.10;21.13;;;5.00;91.70;;;;;;4998001;28;20021;-90
2022/01/14 00:37:13;;;;;;;42.45;20.45;;;5.00;91.70;;;;;;4981331;28;20092;-89
2022/01/14 00:39:39;;;;;;;49.65;21.35;;;5.00;91.70;;;;;;4998054;28;20117;-89
2022/01/14 00:42:04;;;;;;;38.72;19.90;;;5.00;91.70;;;;;;4981552;28;20113;-90
2022/01/14 00:44:30;;;;;;;38.63;19.45;;;5.10;91.70;;;;;;4981605;28;20030;-90
2022/01/14 00:46:56;;;;;;;59.95;19.38;;;5.10;91.70;;;;;;4965489;28;20041;-90
2022/01/14 00:49:22;;;;;;;43.83;19.15;;;5.10;91.60;;;;;;4980984;28;20030;-90
2022/01/14 00:51:48;;;;;;;45.70;19.88;;;5.10;91.60;;;;;;4965216;28;20029;-89
2022/01/14 00:54:15;;;;;;;51.20;20.00;;;5.10;91.60;;;;;;4997535;28;20033;-89
2022/01/14 00:59:16;;;;;;;38.97;18.75;;;5.20;91.50;;;;;;4997353;28;20026;-90
2022/01/14 01:01:45;;;;;;;37.97;18.90;;;5.20;91.50;;;;;;4963090;28;20050;-89
2022/01/14 01:04:16;;;;;;;42.20;20.13;;;5.20;91.40;;;;;;4998544;28;20034;-90
2022/01/14 01:06:43;;;;;;;45.08;20.65;;;5.20;91.40;;;;;;5004401;28;20026;-90
2022/01/14 01:09:12;;;;;;;38.80;19.83;;;5.30;91.40;;;;;;4980830;28;20481;-89
2022/01/14 01:11:48;;;;;;;40.60;20.17;;;5.30;91.40;;;;;;4980873;28;20079;-90
2022/01/14 01:14:19;;;;;;;49.13;20.77;;;5.30;91.40;;;;;;5000076;28;20022;-89
2022/01/14 01:16:45;;;;;;;39.38;18.85;;;5.20;91.30;;;;;;4965716;28;20187;-89
2022/01/14 01:19:12;;;;;;;39.17;19.02;;;5.20;91.30;;;;;;4996552;28;20026;-89
2022/01/14 01:21:38;;;;;;;42.42;19.60;;;5.20;91.30;;;;;;4996288;28;20366;-90
2022/01/14 01:24:04;;;;;;;36.92;18.63;;;5.20;91.30;;;;;;4980618;28;20025;-90
2022/01/14 01:26:38;;;;;;;40.30;20.35;;;5.20;91.30;;;;;;4980558;28;20040;-89
2022/01/14 01:31:43;;;;;;;44.83;19.48;;;5.20;91.20;;;;;;5013750;28;20042;-90
2022/01/14 01:34:15;;;;;;;51.13;22.48;;;5.20;91.20;;;;;;4996778;28;20584;-89
2022/01/14 01:36:43;;;;;;;42.03;21.15;;;5.20;91.10;;;;;;5013957;28;20032;-89
2022/01/14 01:39:14;;;;;;;53.65;23.10;;;5.20;91.10;;;;;;4996762;28;20018;-89
2022/01/14 01:41:43;;;;;;;47.25;22.52;;;5.20;91.10;;;;;;5014551;28;20034;-90
2022/01/14 01:44:10;;;;;;;50.60;22.90;;;5.20;91.10;;;;;;5014176;28;20088;-89
2022/01/14 01:46:38;;;;;;;45.65;22.73;;;5.20;91.10;;;;;;4996049;28;20068;-90
2022/01/14 01:49:05;;;;;;;46.97;23.50;;;5.20;91.10;;;;;;4996152;28;20033;-90
2022/01/14 01:51:31;;;;;;;48.88;23.17;;;5.20;91.00;;;;;;4996640;28;20037;-90
2022/01/14 01:53:57;;;;;;;42.63;21.77;;;5.20;91.30;;;;;;4996512;28;20038;-90
2022/01/14 01:56:23;;;;;;;44.22;21.48;;;5.20;91.10;;;;;;4996432;28;20054;-91
2022/01/14 01:58:48;;;;;;;55.47;21.55;;;5.20;91.10;;;;;;4996364;28;20029;-91
2022/01/14 02:01:14;;;;;;;50.88;21.40;;;5.20;91.10;;;;;;4996400;28;20010;-91
2022/01/14 02:03:41;;;;;;;58.58;23.48;;;5.20;91.00;;;;;;4979978;28;20025;-91
2022/01/14 02:06:07;;;;;;;51.67;22.67;;;5.20;91.00;;;;;;4980035;28;20026;-91
2022/01/14 02:08:33;;;;;;;45.85;22.52;;;5.10;91.00;;;;;;4996169;28;20033;-91
2022/01/14 02:11:00;;;;;;;45.28;21.90;;;5.10;91.00;;;;;;4996324;28;20083;-91
2022/01/14 02:13:26;;;;;;;45.53;21.98;;;5.10;91.10;;;;;;4980318;28;20485;-91
2022/01/14 02:25:07;;;;;;;51.33;24.10;;;5.10;91.00;;;;;;5001090;28;20033;-91
2022/01/14 02:26:56;;;;;;;53.78;23.90;;;5.00;91.00;;;;;;4995715;28;20034;-91
2022/01/14 02:29:22;;;;;;;54.33;23.63;;;5.00;91.00;;;;;;4979341;28;20040;-91
2022/01/14 02:31:49;;;;;;;42.42;21.08;;;5.00;91.10;;;;;;4979904;28;20072;-91
2022/01/14 02:34:16;;;;;;;40.78;20.38;;;5.00;91.10;;;;;;5012440;28;20037;-91
2022/01/14 02:36:44;;;;;;;56.60;24.48;;;5.00;91.20;;;;;;4995690;28;20034;-91
2022/01/14 02:39:12;;;;;;;57.85;25.77;;;5.00;91.10;;;;;;4976211;28;20205;-92
2022/01/14 02:41:39;;;;;;;78.05;25.60;;;5.00;91.00;;;;;;4994216;28;20021;-91
2022/01/14 02:44:08;;;;;;;114.95;27.98;;;5.00;91.00;;;;;;4995516;28;20057;-91
2022/01/14 02:46:39;;;;;;;59.10;24.85;;;5.00;91.10;;;;;;4995068;28;20048;-90
2022/01/14 02:49:05;;;;;;;47.28;22.33;;;5.00;91.00;;;;;;4996196;28;20029;-91
2022/01/14 02:51:32;;;;;;;48.38;22.67;;;5.00;91.10;;;;;;4979554;28;20026;-90
2022/01/14 02:54:11;;;;;;;104.40;25.42;;;5.00;91.10;;;;;;4995744;28;20168;-91
2022/01/14 02:56:41;;;;;;;58.35;23.90;;;5.00;91.10;;;;;;4995643;28;20089;-90
2022/01/14 02:59:09;;;;;;;53.30;23.90;;;5.00;91.10;;;;;;4995306;28;20018;-91
2022/01/14 03:01:35;;;;;;;46.03;22.13;;;5.00;91.10;;;;;;4979106;28;20063;-91
2022/01/14 03:04:02;;;;;;;49.08;22.20;;;5.00;91.00;;;;;;4979621;28;20124;-91
2022/01/14 03:06:28;;;;;;;47.03;21.35;;;5.00;91.10;;;;;;4979385;28;20509;-91
2022/01/14 03:08:56;;;;;;;42.08;20.92;;;5.00;91.10;;;;;;4994899;28;20581;-91
2022/01/14 03:11:46;;;;;;;50.83;22.70;;;5.00;91.10;;;;;;4995106;28;20549;-90
2022/01/14 03:14:14;;;;;;;46.40;21.63;;;5.10;91.10;;;;;;4995494;28;20084;-91
2022/01/14 03:16:42;;;;;;;39.95;21.50;;;5.10;91.00;;;;;;4994045;28;20128;-91
2022/01/14 03:19:16;;;;;;;47.50;22.65;;;5.10;91.00;;;;;;4994048;28;20013;-91
2022/01/14 03:21:43;;;;;;;47.75;21.42;;;5.10;91.00;;;;;;4994881;28;20116;-91
2022/01/14 03:27:04;;;;;;;48.33;20.17;;;5.10;91.00;;;;;;5000117;28;20026;-91
2022/01/14 03:29:29;;;;;;;60.90;21.75;;;5.10;91.00;;;;;;4983718;28;20080;-91
2022/01/14 03:31:55;;;;;;;42.40;21.40;;;5.10;91.00;;;;;;4972457;28;20034;-91
2022/01/14 03:34:21;;;;;;;41.85;21.08;;;5.10;91.00;;;;;;4994410;28;20116;-91
2022/01/14 03:36:47;;;;;;;40.78;21.48;;;5.10;91.00;;;;;;4994837;28;20045;-91
2022/01/14 03:39:12;;;;;;;46.55;19.42;;;5.10;90.90;;;;;;4978625;28;20057;-90
2022/01/14 03:41:38;;;;;;;48.33;20.00;;;5.10;91.00;;;;;;4962055;28;20185;-90
2022/01/14 03:44:04;;;;;;;36.78;19.95;;;5.10;91.00;;;;;;4962331;28;20036;-91
2022/01/14 03:46:30;;;;;;;48.42;22.27;;;5.10;90.90;;;;;;4978258;28;20076;-91
2022/01/14 03:48:55;;;;;;;45.60;21.35;;;5.10;90.90;;;;;;4977930;28;20121;-92
2022/01/14 03:51:27;;;;;;;41.83;20.15;;;5.10;90.90;;;;;;4978457;28;20040;-91
2022/01/14 03:53:53;;;;;;;45.78;21.77;;;5.10;90.90;;;;;;4994368;28;20061;-91
2022/01/14 03:56:19;;;;;;;39.17;19.70;;;5.10;90.90;;;;;;4962671;28;20037;-91
2022/01/14 03:58:45;;;;;;;55.55;20.75;;;5.10;90.90;;;;;;4994676;28;20481;-91
2022/01/14 04:01:12;;;;;;;49.70;20.55;;;5.10;90.90;;;;;;4979521;28;20120;-91
2022/01/14 04:03:39;;;;;;;49.58;23.02;;;5.10;90.90;;;;;;4994564;28;20168;-91
2022/01/14 04:06:05;;;;;;;45.45;21.85;;;5.10;90.90;;;;;;4978103;28;20021;-92
2022/01/14 04:08:31;;;;;;;48.83;21.58;;;5.00;90.80;;;;;;4977735;28;20052;-91
2022/01/14 04:10:58;;;;;;;55.55;23.40;;;5.00;90.90;;;;;;4994082;28;20048;-92
2022/01/14 04:13:38;;;;;;;46.38;20.40;;;5.00;90.90;;;;;;4978056;28;20124;-92
2022/01/14 04:16:04;;;;;;;41.40;21.02;;;5.00;91.00;;;;;;4993405;28;20180;-91
2022/01/14 04:18:30;;;;;;;45.88;20.67;;;5.00;91.00;;;;;;4992951;28;20120;-91
2022/01/14 04:20:55;;;;;;;45.17;21.20;;;5.00;91.00;;;;;;4961091;28;20106;-90
2022/01/14 04:23:25;;;;;;;43.40;20.10;;;5.00;91.00;;;;;;4977122;28;20081;-91
2022/01/14 04:25:53;;;;;;;62.22;21.65;;;5.00;91.00;;;;;;4977805;28;20520;-90
2022/01/14 04:28:21;;;;;;;43.22;21.13;;;5.00;91.00;;;;;;4992667;28;20025;-91
2022/01/14 04:30:47;;;;;;;37.05;19.88;;;5.00;91.00;;;;;;4977596;28;20034;-91
2022/01/14 04:33:14;;;;;;;63.20;23.33;;;5.00;91.00;;;;;;4993673;28;20504;-90
2022/01/14 04:35:40;;;;;;;44.72;24.08;;;5.00;91.00;;;;;;4993904;28;20034;-90
2022/01/14 04:38:06;;;;;;;44.42;22.55;;;4.90;91.00;;;;;;4976373;28;20088;-90
2022/01/14 04:40:32;;;;;;;46.20;21.50;;;4.90;91.00;;;;;;4961285;28;20062;-91
2022/01/14 04:42:59;;;;;;;48.85;22.33;;;4.90;91.10;;;;;;4993062;28;20053;-90
2022/01/14 04:45:41;;;;;;;67.57;22.65;;;4.90;91.10;;;;;;4977144;28;20018;-91
2022/01/14 04:48:09;;;;;;;87.10;25.58;;;5.00;91.10;;;;;;4978813;28;20129;-91
2022/01/14 04:50:35;;;;;;;55.92;23.48;;;5.00;91.10;;;;;;4992884;28;20025;-90
2022/01/14 04:53:01;;;;;;;68.15;24.55;;;5.00;91.00;;;;;;4976776;28;20022;-91
2022/01/14 04:55:28;;;;;;;60.58;23.08;;;5.00;91.00;;;;;;4977082;28;20604;-91
2022/01/14 04:57:55;;;;;;;59.45;23.27;;;5.00;91.00;;;;;;4979759;28;20037;-91
2022/01/14 05:00:25;;;;;;;59.15;24.58;;;5.00;91.00;;;;;;5013728;28;20499;-91
2022/01/14 05:02:54;;;;;;;48.92;22.23;;;5.00;91.00;;;;;;4980014;28;20032;-91
2022/01/14 05:05:23;;;;;;;43.83;20.77;;;5.10;91.00;;;;;;4996336;28;20072;-91
2022/01/14 05:07:50;;;;;;;41.08;21.08;;;5.10;91.00;;;;;;4991917;28;20041;-91
2022/01/14 05:10:34;;;;;;;40.42;21.98;;;5.10;91.00;;;;;;4997542;28;20113;-90
2022/01/14 05:13:00;;;;;;;43.20;19.95;;;5.10;91.00;;;;;;4995610;28;20018;-91
2022/01/14 05:15:28;;;;;;;38.25;19.30;;;5.10;91.00;;;;;;4807966;28;5426087;-91
2022/01/14 05:17:55;;;;;;;44.20;21.67;;;5.10;91.00;;;;;;4996407;28;20033;-89
2022/01/14 05:20:21;;;;;;;58.25;22.70;;;5.10;91.00;;;;;;4976965;28;20049;-89
2022/01/14 05:22:47;;;;;;;59.42;23.85;;;5.10;91.00;;;;;;4977638;28;20023;-89
2022/01/14 05:25:14;;;;;;;54.33;23.25;;;5.10;91.00;;;;;;4990099;28;20033;-89
2022/01/14 05:27:41;;;;;;;54.00;21.88;;;5.10;91.00;;;;;;4980439;28;20120;-89
2022/01/14 05:30:09;;;;;;;129.30;25.85;;;5.10;91.00;;;;;;4980222;28;20037;-90
2022/01/14 05:32:35;;;;;;;55.30;21.73;;;5.10;91.00;;;;;;5014404;28;20030;-90
2022/01/14 05:35:02;;;;;;;72.15;20.67;;;5.10;91.20;;;;;;4980632;28;20378;-90
2022/01/14 05:37:28;;;;;;;59.15;23.58;;;5.10;91.00;;;;;;4996386;28;20477;-89
2022/01/14 05:39:53;;;;;;;64.57;23.02;;;5.10;91.00;;;;;;4995906;28;20034;-89
2022/01/14 05:42:19;;;;;;;50.83;23.40;;;5.10;91.00;;;;;;4979887;28;20465;-89
2022/01/14 05:44:45;;;;;;;48.67;21.05;;;5.00;90.90;;;;;;4980303;28;20041;-90
2022/01/14 05:47:11;;;;;;;46.08;20.15;;;5.00;91.00;;;;;;4980160;28;20476;-90
2022/01/14 05:49:36;;;;;;;44.33;20.38;;;5.00;91.00;;;;;;4980080;28;20123;-90
2022/01/14 05:52:02;;;;;;;50.70;20.05;;;5.00;91.10;;;;;;4980095;28;20042;-90
2022/01/14 05:54:28;;;;;;;53.80;20.25;;;5.00;91.10;;;;;;4980924;28;20449;-90
2022/01/14 05:56:54;;;;;;;68.72;23.10;;;5.10;91.10;;;;;;4980189;28;20041;-89
2022/01/14 05:59:23;;;;;;;45.28;20.67;;;5.10;91.10;;;;;;4980154;28;20029;-90
2022/01/14 06:01:49;;;;;;;41.88;20.60;;;5.10;91.10;;;;;;4980160;28;20060;-90
2022/01/14 06:04:14;;;;;;;45.20;22.25;;;5.10;91.10;;;;;;4980744;28;20472;-90
2022/01/14 06:06:40;;;;;;;143.50;28.63;;;5.10;91.10;;;;;;4980293;28;20037;-90
2022/01/14 06:09:06;;;;;;;145.80;27.75;;;5.10;91.10;;;;;;4979552;28;20018;-89
2022/01/14 06:11:32;;;;;;;55.10;20.95;;;5.10;91.10;;;;;;4979089;28;20511;-89
2022/01/14 06:13:57;;;;;;;50.67;21.15;;;5.10;91.10;;;;;;4979646;28;20026;-90
2022/01/14 06:16:23;;;;;;;51.40;21.65;;;5.10;91.10;;;;;;4979968;28;20053;-89
2022/01/14 06:18:49;;;;;;;42.42;19.88;;;5.00;91.10;;;;;;4979149;28;20026;-89
2022/01/14 06:21:15;;;;;;;68.13;21.25;;;5.10;91.10;;;;;;5013255;28;20499;-89
2022/01/14 06:23:41;;;;;;;51.50;21.77;;;5.10;91.20;;;;;;4996098;28;20112;-88
2022/01/14 06:26:07;;;;;;;47.58;21.05;;;5.10;91.20;;;;;;4995495;28;20079;-89
2022/01/14 06:28:33;;;;;;;47.35;20.83;;;5.10;91.20;;;;;;4996127;28;20644;-89
2022/01/14 06:30:59;;;;;;;52.63;21.33;;;5.10;91.20;;;;;;4995815;28;20133;-91
2022/01/14 06:33:24;;;;;;;44.85;19.90;;;5.10;91.10;;;;;;4980014;28;20033;-91
2022/01/14 06:35:50;;;;;;;54.28;20.17;;;5.10;91.20;;;;;;4979761;28;20034;-89
2022/01/14 06:38:17;;;;;;;47.70;20.48;;;5.00;91.20;;;;;;4965860;28;20105;-89
2022/01/14 06:40:43;;;;;;;46.33;21.05;;;5.00;91.40;;;;;;4979513;28;20026;-89
2022/01/14 06:43:09;;;;;;;54.13;21.33;;;5.00;91.30;;;;;;4979206;28;20037;-89
2022/01/14 06:45:34;;;;;;;52.58;19.17;;;5.00;91.30;;;;;;4963080;28;20104;-89
2022/01/14 06:48:00;;;;;;;53.03;20.73;;;5.00;91.30;;;;;;4978598;28;20393;-89
2022/01/14 06:50:26;;;;;;;44.92;20.25;;;5.00;91.30;;;;;;4994115;28;20026;-90
2022/01/14 06:52:52;;;;;;;33.70;19.05;;;5.00;91.30;;;;;;4975687;28;20030;-89
2022/01/14 06:55:18;;;;;;;36.83;18.55;;;5.00;91.30;;;;;;4998210;28;20034;-90
2022/01/14 06:57:44;;;;;;;61.42;21.25;;;5.00;91.30;;;;;;4992547;28;20022;-89
2022/01/14 07:00:13;;;;;;;65.05;21.95;;;4.90;91.30;;;;;;4976126;28;20156;-90
2022/01/14 07:02:39;;;;;;;47.53;20.70;;;4.90;91.30;;;;;;4996261;28;20025;-89
2022/01/14 07:05:06;;;;;;;55.25;20.42;;;4.90;91.30;;;;;;5013461;28;20022;-89
2022/01/14 07:07:32;;;;;;;42.97;20.88;;;4.90;91.40;;;;;;4995620;28;20404;-89
2022/01/14 07:09:58;;;;;;;39.47;20.73;;;4.90;91.40;;;;;;4995998;28;20096;-90
2022/01/14 07:12:32;;;;;;;49.42;20.08;;;4.80;91.40;;;;;;4979219;28;20030;-90
2022/01/14 07:14:58;;;;;;;56.35;22.00;;;4.80;91.50;;;;;;5006316;28;20037;-89
2022/01/14 07:17:24;;;;;;;56.53;22.98;;;4.80;91.50;;;;;;5014892;28;20025;-88
2022/01/14 07:19:53;;;;;;;59.65;20.75;;;4.80;91.50;;;;;;4998026;28;20026;-90
2022/01/14 07:22:19;;;;;;;113.72;26.48;;;4.80;91.50;;;;;;5016057;28;20025;-89
2022/01/14 07:24:45;;;;;;;64.80;22.42;;;4.80;91.60;;;;;;4990698;28;20120;-88
2022/01/14 07:27:11;;;;;;;54.92;21.98;;;4.80;91.50;;;;;;4979408;28;20129;-89
2022/01/14 07:29:37;;;;;;;48.72;20.55;;;4.80;91.50;;;;;;4996305;28;20496;-90
2022/01/14 07:32:03;;;;;;;70.47;22.05;;;4.80;91.60;;;;;;4981011;28;20042;-91
2022/01/14 07:34:29;;;;;;;49.05;22.50;;;4.90;91.60;;;;;;4996447;28;20033;-90
2022/01/14 07:36:55;;;;;;;47.83;22.35;;;4.80;91.50;;;;;;4980693;28;20037;-89
2022/01/14 07:39:23;;;;;;;78.32;23.42;;;4.90;91.50;;;;;;5010007;28;20018;-89
2022/01/14 07:41:49;;;;;;;59.13;23.80;;;4.90;91.50;;;;;;4979474;28;20025;-89
2022/01/14 07:44:15;;;;;;;70.57;22.30;;;4.90;91.50;;;;;;4995456;28;20433;-89
2022/01/14 07:46:41;;;;;;;46.35;22.80;;;4.90;91.50;;;;;;4975209;28;20080;-89
2022/01/14 07:49:07;;;;;;;44.97;22.17;;;4.80;91.50;;;;;;4959418;28;20030;-89
2022/01/14 07:51:32;;;;;;;53.10;23.10;;;4.90;91.60;;;;;;5002005;28;20025;-89
2022/01/14 07:54:04;;;;;;;79.20;22.58;;;4.90;91.50;;;;;;4975013;28;20037;-89
2022/01/14 07:56:34;;;;;;;51.33;21.85;;;4.90;91.60;;;;;;4995025;28;20037;-89
2022/01/14 07:59:00;;;;;;;41.92;21.92;;;4.90;91.50;;;;;;5014218;28;20111;-89
2022/01/14 08:01:27;;;;;;;49.75;20.92;;;4.90;91.50;;;;;;4997118;28;20017;-89
2022/01/14 08:03:53;;;;;;;33.33;19.15;;;4.90;91.50;;;;;;4994887;28;20088;-88
2022/01/14 08:06:19;;;;;;;32.80;19.85;;;4.90;91.50;;;;;;4974597;28;20037;-90
2022/01/14 08:08:45;;;;;;;38.17;20.77;;;4.90;91.60;;;;;;4961633;28;20369;-89
2022/01/14 08:11:11;;;;;;;36.38;19.33;;;4.80;91.60;;;;;;4979038;28;20037;-90
2022/01/14 08:13:36;;;;;;;45.75;20.45;;;4.90;91.70;;;;;;4979873;28;20034;-89
2022/01/14 08:16:03;;;;;;;41.95;20.27;;;4.90;91.60;;;;;;4978362;28;20242;-89
2022/01/14 08:18:28;;;;;;;37.35;20.02;;;4.90;91.60;;;;;;4982396;28;20041;-89
2022/01/14 08:20:56;;;;;;;59.38;21.15;;;5.00;91.60;;;;;;4975111;28;20026;-89
2022/01/14 08:23:22;;;;;;;35.92;19.90;;;5.00;91.60;;;;;;5008585;28;20026;-89
2022/01/14 08:25:52;;;;;;;61.75;21.50;;;5.00;91.60;;;;;;4979234;28;20088;-88
2022/01/14 08:28:19;;;;;;;55.58;23.70;;;5.00;91.50;;;;;;4981424;28;20033;-89
2022/01/14 08:30:45;;;;;;;41.67;22.10;;;5.10;91.50;;;;;;5012171;28;20051;-91
2022/01/14 08:33:12;;;;;;;41.25;20.77;;;5.10;91.50;;;;;;4965753;28;20042;-90
2022/01/14 08:35:38;;;;;;;41.05;21.65;;;5.10;91.50;;;;;;4983241;28;20180;-91
2022/01/14 08:38:04;;;;;;;41.60;20.63;;;5.10;91.50;;;;;;4984392;28;20253;-91
2022/01/14 08:40:30;;;;;;;46.88;21.08;;;5.20;91.50;;;;;;4989799;28;20505;-91
2022/01/14 08:42:56;;;;;;;36.20;18.73;;;5.20;91.50;;;;;;5007908;28;20477;-90
2022/01/14 08:45:23;;;;;;;42.25;21.25;;;5.20;91.50;;;;;;4982655;28;20038;-90
2022/01/14 08:47:52;;;;;;;47.70;19.88;;;5.20;91.40;;;;;;5016187;28;20513;-90
2022/01/14 08:50:23;;;;;;;41.47;19.88;;;5.30;91.40;;;;;;4983574;28;20045;-90
2022/01/14 08:52:49;;;;;;;42.45;20.88;;;5.30;91.40;;;;;;4997796;28;20041;-91
2022/01/14 08:55:16;;;;;;;33.85;18.27;;;5.30;91.30;;;;;;4982899;28;20030;-91
2022/01/14 08:57:43;;;;;;;70.63;22.83;;;5.30;91.30;;;;;;4998074;28;20034;-91
2022/01/14 09:00:09;;;;;;;40.03;21.20;;;5.40;91.20;;;;;;5014012;28;20072;-91
2022/01/14 09:02:35;;;;;;;40.20;20.70;;;5.40;91.20;;;;;;4995648;28;20038;-91
2022/01/14 09:05:03;;;;;;;39.00;21.20;;;5.40;91.20;;;;;;4965882;28;20452;-91
2022/01/14 09:07:28;;;;;;;43.38;21.35;;;5.40;91.20;;;;;;4998006;28;20552;-91
2022/01/14 09:09:55;;;;;;;39.38;20.67;;;5.40;91.20;;;;;;4982613;28;20034;-92
2022/01/14 09:12:21;;;;;;;43.45;21.55;;;5.40;91.10;;;;;;4981657;28;20034;-91
2022/01/14 09:14:48;;;;;;;41.20;21.25;;;5.40;91.10;;;;;;4997124;28;20025;-91
2022/01/14 09:17:13;;;;;;;36.40;19.20;;;5.30;91.20;;;;;;4980514;28;20042;-91
2022/01/14 09:19:40;;;;;;;35.50;19.15;;;5.40;91.20;;;;;;4997095;28;20099;-90
2022/01/14 09:22:07;;;;;;;34.20;19.38;;;5.40;91.20;;;;;;4983260;28;20029;-90
2022/01/14 09:24:34;;;;;;;48.03;21.23;;;5.40;91.20;;;;;;4983138;28;20036;-90
2022/01/14 09:27:00;;;;;;;43.28;21.15;;;5.40;91.20;;;;;;4998498;28;20018;-90
2022/01/14 09:29:26;;;;;;;37.00;19.90;;;5.40;91.10;;;;;;4998477;28;20014;-91
2022/01/14 09:31:52;;;;;;;47.85;20.65;;;5.50;91.10;;;;;;4965823;28;20100;-92
2022/01/14 09:34:18;;;;;;;48.72;20.85;;;5.50;91.10;;;;;;4984250;28;20045;-91
2022/01/14 09:36:45;;;;;;;41.28;20.70;;;5.50;91.10;;;;;;4982245;28;20061;-90
2022/01/14 09:39:11;;;;;;;38.58;21.80;;;5.50;91.10;;;;;;4981056;28;20065;-90
2022/01/14 09:41:37;;;;;;;42.10;22.83;;;5.40;91.00;;;;;;4994646;28;20041;-90
2022/01/14 09:44:03;;;;;;;31.23;18.15;;;5.50;91.10;;;;;;4982239;28;20018;-90
2022/01/14 09:46:29;;;;;;;34.88;18.33;;;5.50;91.10;;;;;;4996620;28;20037;-90
2022/01/14 09:48:55;;;;;;;41.17;21.15;;;5.50;91.10;;;;;;4997342;28;20034;-91
2022/01/14 09:51:21;;;;;;;35.30;19.58;;;5.50;91.10;;;;;;4996861;28;20153;-91
2022/01/14 09:53:47;;;;;;;41.03;20.20;;;5.50;91.10;;;;;;4981116;28;20034;-91
2022/01/14 09:56:21;;;;;;;38.05;19.80;;;5.50;91.10;;;;;;4980811;28;20037;-91
2022/01/14 09:58:48;;;;;;;43.17;19.70;;;5.50;91.10;;;;;;4980450;28;20059;-90
2022/01/14 10:01:24;;;;;;;47.90;23.05;;;5.60;91.10;;;;;;4979901;28;20033;-89
2022/01/14 10:04:01;;;;;;;49.13;21.90;;;5.50;91.00;;;;;;4990345;28;20031;-89
2022/01/14 10:06:57;;;;;;;41.75;20.35;;;5.50;91.00;;;;;;5008126;28;20017;-88
2022/01/14 10:09:37;;;;;;;39.08;21.48;;;5.50;91.00;;;;;;4994279;28;20709;-88
2022/01/14 10:12:07;;;;;;;42.85;20.65;;;5.50;91.00;;;;;;4993737;28;20030;-88
2022/01/14 10:14:35;;;;;;;44.13;22.02;;;5.50;91.10;;;;;;4998358;28;20528;-88
2022/01/14 10:17:02;;;;;;;40.28;21.90;;;5.50;91.10;;;;;;4994403;28;20050;-88
2022/01/14 10:19:33;;;;;;;39.63;21.75;;;5.60;91.10;;;;;;4961818;28;20193;-88
2022/01/14 10:21:59;;;;;;;37.63;20.83;;;5.60;91.10;;;;;;5011462;28;20388;-88
2022/01/14 10:24:29;;;;;;;39.35;20.63;;;5.60;91.10;;;;;;4978288;28;20113;-88
2022/01/14 10:27:04;;;;;;;37.83;20.80;;;5.60;91.00;;;;;;4995121;28;20385;-88
2022/01/14 10:29:35;;;;;;;36.88;20.67;;;5.60;91.10;;;;;;4994536;28;20461;-88
2022/01/14 10:32:04;;;;;;;38.50;21.00;;;5.60;91.00;;;;;;4996462;28;20104;-88
2022/01/14 10:34:30;;;;;;;37.63;20.58;;;5.60;91.10;;;;;;4993212;28;20017;-89
2022/01/14 10:37:16;;;;;;;50.17;22.38;;;5.60;91.10;;;;;;4978023;28;20040;-88
2022/01/14 10:39:49;;;;;;;38.33;21.65;;;5.60;91.00;;;;;;5011932;28;20037;-89
2022/01/14 10:42:21;;;;;;;;;;;5.60;91.00;;;;;;4994658;28;20048;-89
2022/01/14 10:44:47;;;;;;;46.28;21.77;;;5.60;91.00;;;;;;4978811;28;20481;-89
2022/01/14 10:47:23;;;;;;;46.83;22.15;;;5.60;91.00;;;;;;4961895;28;20121;-89
2022/01/14 10:49:55;;;;;;;42.25;20.48;;;5.60;91.10;;;;;;4994161;28;20037;-89
2022/01/14 10:52:24;;;;;;;39.13;22.13;;;5.60;91.10;;;;;;4994573;28;20034;-90
2022/01/14 10:54:57;;;;;;;42.80;21.13;;;5.60;91.00;;;;;;4978539;28;20022;-90
2022/01/14 10:57:29;;;;;;;37.17;21.02;;;5.60;91.10;;;;;;5007297;28;20397;-90
2022/01/14 11:00:13;;;;;;;40.17;20.60;;;5.60;91.00;;;;;;4980730;28;20039;-88
2022/01/14 11:02:45;;;;;;;40.63;22.45;;;5.70;91.10;;;;;;4996344;28;20022;-88
2022/01/14 11:05:15;;;;;;;36.83;20.23;;;5.70;91.00;;;;;;5011849;28;20033;-89
2022/01/14 11:07:42;;;;;;;38.53;20.92;;;5.70;91.00;;;;;;4993987;28;20026;-88
2022/01/14 11:10:29;;;;;;;38.75;20.73;;;5.70;91.00;;;;;;4994227;28;20515;-89
2022/01/14 11:12:56;;;;;;;44.60;22.48;;;5.70;91.00;;;;;;4993449;28;20045;-89
2022/01/14 11:15:24;;;;;;;38.20;21.67;;;5.70;91.00;;;;;;4978081;28;20034;-90
2022/01/14 11:17:53;;;;;;;45.85;22.77;;;5.70;91.00;;;;;;4993385;28;20575;-90
2022/01/14 11:20:34;;;;;;;52.47;24.25;;;5.70;91.00;;;;;;4978997;28;20032;-90
2022/01/14 11:23:16;;;;;;;42.30;22.08;;;5.80;91.00;;;;;;4994057;28;20022;-90
2022/01/14 11:25:59;;;;;;;45.25;22.70;;;5.80;91.00;;;;;;4980733;28;20025;-89
2022/01/14 11:28:29;;;;;;;42.75;21.15;;;5.80;90.90;;;;;;5001409;28;20028;-90
2022/01/14 11:30:55;;;;;;;40.25;21.00;;;5.70;90.90;;;;;;5013666;28;20022;-90
2022/01/14 11:33:40;;;;;;;46.05;23.80;;;5.80;91.00;;;;;;4991615;28;20030;-90
2022/01/14 11:36:07;;;;;;;48.20;22.50;;;5.80;91.00;;;;;;4993616;28;20025;-90
2022/01/14 11:38:36;;;;;;;48.00;24.40;;;5.80;90.90;;;;;;4991115;28;20095;-88
2022/01/14 11:41:03;;;;;;;45.42;23.50;;;5.80;90.80;;;;;;4993673;28;20509;-88
2022/01/14 11:43:50;;;;;;;43.58;22.17;;;5.80;90.90;;;;;;4977069;28;20048;-89
2022/01/14 11:46:36;;;;;;;43.28;23.50;;;5.80;90.90;;;;;;4981456;28;20026;-88
2022/01/14 11:49:33;;;;;;;42.72;23.50;;;5.80;90.90;;;;;;4982041;28;20038;-88
2022/01/14 11:52:00;;;;;;;39.92;22.17;;;5.80;90.90;;;;;;4993838;28;20030;-88
2022/01/14 11:54:43;;;;;;;40.00;22.17;;;5.80;90.90;;;;;;4968615;28;20026;-88
2022/01/14 11:57:10;;;;;;;43.28;21.90;;;5.80;90.90;;;;;;5000163;28;20105;-88
2022/01/14 11:59:38;;;;;;;45.13;24.25;;;5.80;90.90;;;;;;4978712;28;20094;-89
2022/01/14 12:02:25;;;;;;;46.08;24.00;;;5.80;90.80;;;;;;4989161;28;20093;-88
2022/01/14 12:05:13;;;;;;;47.25;24.08;;;5.80;90.80;;;;;;4994717;28;20026;-88
2022/01/14 12:08:10;;;;;;;46.35;24.60;;;5.80;90.90;;;;;;4991780;28;20040;-89
2022/01/14 12:10:48;;;;;;;45.00;22.95;;;5.80;90.90;;;;;;4983486;28;20034;-89
2022/01/14 12:13:47;;;;;;;44.05;25.02;;;5.80;90.90;;;;;;4993224;28;20112;-88
2022/01/14 12:16:19;;;;;;;44.05;23.35;;;5.80;91.00;;;;;;5008689;28;20046;-88
2022/01/14 12:18:56;;;;;;;43.17;22.93;;;5.90;91.00;;;;;;4992856;28;20026;-89
2022/01/14 12:21:38;;;;;;;45.53;23.60;;;5.90;90.90;;;;;;4994856;28;20033;-90
2022/01/14 12:24:31;;;;;;;47.15;24.70;;;5.90;90.90;;;;;;4993497;28;20395;-90
2022/01/14 12:27:18;;;;;;;47.40;24.67;;;5.90;90.90;;;;;;4990569;28;20085;-91
2022/01/14 12:29:59;;;;;;;45.55;22.55;;;5.90;91.00;;;;;;4989111;28;20053;-90
2022/01/14 12:32:34;;;;;;;57.42;26.92;;;5.90;91.00;;;;;;5013295;28;20022;-90
2022/01/14 12:35:06;;;;;;;45.85;26.45;;;5.90;90.90;;;;;;4990591;28;20108;-90
2022/01/14 12:37:36;;;;;;;;;;;5.90;90.90;;;;;;4992386;28;20025;-90
2022/01/14 12:40:10;;;;;;;47.75;24.73;;;5.90;90.90;;;;;;4992502;28;19909;-91
2022/01/14 12:42:36;;;;;;;47.95;24.27;;;5.90;90.90;;;;;;4993041;28;20516;-90
2022/01/14 12:45:05;;;;;;;42.53;23.42;;;5.90;90.90;;;;;;4977469;28;20760;-90
2022/01/14 12:47:34;;;;;;;37.63;22.77;;;5.90;91.00;;;;;;4993065;28;20100;-90
2022/01/14 12:50:06;;;;;;;49.72;27.60;;;5.90;91.00;;;;;;4977748;28;20034;-90
2022/01/14 12:52:43;;;;;;;38.55;22.73;;;5.90;90.90;;;;;;5011555;28;20646;-90
2022/01/14 12:55:10;;;;;;;46.38;24.48;;;5.90;90.90;;;;;;4979050;28;20064;-91
2022/01/14 12:57:36;;;;;;;43.40;23.50;;;5.90;90.90;;;;;;4975149;28;20047;-91
2022/01/14 13:00:04;;;;;;;47.22;25.48;;;5.90;90.90;;;;;;4992591;28;20053;-90
2022/01/14 13:02:30;;;;;;;41.15;23.00;;;6.00;90.90;;;;;;4993578;28;20041;-90
2022/01/14 13:05:19;;;;;;;45.60;25.88;;;6.00;90.90;;;;;;4979957;28;20014;-90
2022/01/14 13:07:46;;;;;;;50.78;26.73;;;6.10;90.90;;;;;;5008678;28;20036;-90
2022/01/14 13:10:14;;;;;;;40.28;24.00;;;6.00;90.80;;;;;;4993840;28;20026;-91
2022/01/14 13:12:41;;;;;;;45.05;26.58;;;6.00;90.80;;;;;;4994055;28;20393;-90